sensor_id;sensor_type;location;lat;lon;timestamp;P1;durP1;ratioP1;P2;durP2;ratioP2
9848;SDS011;4963;51.444;6.528;2023-07-20T00:00:04;4.80;;;3.20;;
9848;SDS011;4963;51.444;6.528;2023-07-20T00:02:32;5.32;;;2.75;;
9848;SDS011;4963;51.444;6.528;2023-07-20T00:04:59;4.95;;;3.40;;
9848;SDS011;4963;51.444;6.528;2023-07-20T00:07:27;6.70;;;3.25;;
9848;SDS011;4963;51.444;6.528;2023-07-20T00:09:54;5.20;;;3.33;;
9848;SDS011;4963;51.444;6.528;2023-07-20T00:12:22;4.47;;;2.95;;
9848;SDS011;4963;51.444;6.528;2023-07-20T00:14:48;4.20;;;2.88;;
9848;SDS011;4963;51.444;6.528;2023-07-20T00:17:18;6.22;;;3.33;;
9848;SDS011;4963;51.444;6.528;2023-07-20T00:19:46;5.10;;;3.10;;
9848;SDS011;4963;51.444;6.528;2023-07-20T00:22:13;5.07;;;3.30;;
9848;SDS011;4963;51.444;6.528;2023-07-20T00:24:41;5.50;;;3.92;;
9848;SDS011;4963;51.444;6.528;2023-07-20T00:27:08;4.07;;;3.20;;
9848;SDS011;4963;51.444;6.528;2023-07-20T00:29:35;5.85;;;3.45;;
9848;SDS011;4963;51.444;6.528;2023-07-20T00:32:02;5.20;;;3.35;;
9848;SDS011;4963;51.444;6.528;2023-07-20T00:34:30;4.53;;;3.42;;
9848;SDS011;4963;51.444;6.528;2023-07-20T00:36:57;4.93;;;3.10;;
9848;SDS011;4963;51.444;6.528;2023-07-20T00:39:23;5.15;;;3.60;;
9848;SDS011;4963;51.444;6.528;2023-07-20T00:41:52;6.03;;;3.90;;
9848;SDS011;4963;51.444;6.528;2023-07-20T00:44:19;7.18;;;3.80;;
9848;SDS011;4963;51.444;6.528;2023-07-20T00:46:45;3.97;;;3.47;;
9848;SDS011;4963;51.444;6.528;2023-07-20T00:49:13;6.38;;;3.80;;
9848;SDS011;4963;51.444;6.528;2023-07-20T00:51:40;6.22;;;3.78;;
9848;SDS011;4963;51.444;6.528;2023-07-20T00:54:07;4.43;;;3.50;;
9848;SDS011;4963;51.444;6.528;2023-07-20T00:56:34;4.80;;;3.58;;
9848;SDS011;4963;51.444;6.528;2023-07-20T00:59:03;3.80;;;3.35;;
9848;SDS011;4963;51.444;6.528;2023-07-20T01:01:30;4.93;;;3.53;;
9848;SDS011;4963;51.444;6.528;2023-07-20T01:03:57;5.68;;;3.92;;
9848;SDS011;4963;51.444;6.528;2023-07-20T01:06:29;4.55;;;3.70;;
9848;SDS011;4963;51.444;6.528;2023-07-20T01:09:05;4.95;;;3.38;;
9848;SDS011;4963;51.444;6.528;2023-07-20T01:11:38;6.72;;;3.60;;
9848;SDS011;4963;51.444;6.528;2023-07-20T01:14:10;4.47;;;3.33;;
9848;SDS011;4963;51.444;6.528;2023-07-20T01:16:39;10.25;;;4.78;;
9848;SDS011;4963;51.444;6.528;2023-07-20T01:19:06;12.75;;;5.35;;
9848;SDS011;4963;51.444;6.528;2023-07-20T01:21:34;8.27;;;4.38;;
9848;SDS011;4963;51.444;6.528;2023-07-20T01:24:17;6.25;;;4.13;;
9848;SDS011;4963;51.444;6.528;2023-07-20T01:30:01;6.28;;;4.50;;
9848;SDS011;4963;51.444;6.528;2023-07-20T01:32:42;5.88;;;4.47;;
9848;SDS011;4963;51.444;6.528;2023-07-20T01:35:10;7.90;;;4.97;;
9848;SDS011;4963;51.444;6.528;2023-07-20T01:37:40;8.40;;;4.97;;
9848;SDS011;4963;51.444;6.528;2023-07-20T01:40:11;6.63;;;4.93;;
9848;SDS011;4963;51.444;6.528;2023-07-20T01:42:42;8.48;;;5.30;;
9848;SDS011;4963;51.444;6.528;2023-07-20T01:45:10;7.30;;;4.82;;
9848;SDS011;4963;51.444;6.528;2023-07-20T01:47:37;6.18;;;5.13;;
9848;SDS011;4963;51.444;6.528;2023-07-20T01:50:06;9.15;;;4.63;;
9848;SDS011;4963;51.444;6.528;2023-07-20T01:52:33;6.78;;;5.32;;
9848;SDS011;4963;51.444;6.528;2023-07-20T01:55:00;7.03;;;4.90;;
9848;SDS011;4963;51.444;6.528;2023-07-20T01:57:27;4.68;;;4.15;;
9848;SDS011;4963;51.444;6.528;2023-07-20T01:59:54;7.13;;;4.80;;
9848;SDS011;4963;51.444;6.528;2023-07-20T02:02:23;6.82;;;4.78;;
9848;SDS011;4963;51.444;6.528;2023-07-20T02:04:52;5.90;;;4.20;;
9848;SDS011;4963;51.444;6.528;2023-07-20T02:07:20;8.88;;;4.90;;
9848;SDS011;4963;51.444;6.528;2023-07-20T02:09:47;6.15;;;5.13;;
9848;SDS011;4963;51.444;6.528;2023-07-20T02:12:14;10.77;;;6.00;;
9848;SDS011;4963;51.444;6.528;2023-07-20T02:14:41;8.57;;;5.10;;
9848;SDS011;4963;51.444;6.528;2023-07-20T02:17:08;6.38;;;4.35;;
9848;SDS011;4963;51.444;6.528;2023-07-20T02:19:36;5.80;;;4.95;;
9848;SDS011;4963;51.444;6.528;2023-07-20T02:22:03;8.20;;;5.15;;
9848;SDS011;4963;51.444;6.528;2023-07-20T02:24:32;7.07;;;5.22;;
9848;SDS011;4963;51.444;6.528;2023-07-20T02:26:59;7.63;;;5.25;;
9848;SDS011;4963;51.444;6.528;2023-07-20T02:29:26;5.53;;;4.78;;
9848;SDS011;4963;51.444;6.528;2023-07-20T02:31:53;6.57;;;4.93;;
9848;SDS011;4963;51.444;6.528;2023-07-20T02:34:19;7.32;;;5.20;;
9848;SDS011;4963;51.444;6.528;2023-07-20T02:36:46;6.88;;;5.53;;
9848;SDS011;4963;51.444;6.528;2023-07-20T02:39:13;7.45;;;5.47;;
9848;SDS011;4963;51.444;6.528;2023-07-20T02:41:41;7.70;;;5.30;;
9848;SDS011;4963;51.444;6.528;2023-07-20T02:44:08;7.93;;;6.03;;
9848;SDS011;4963;51.444;6.528;2023-07-20T02:46:35;6.93;;;5.15;;
9848;SDS011;4963;51.444;6.528;2023-07-20T02:49:02;9.07;;;5.57;;
9848;SDS011;4963;51.444;6.528;2023-07-20T02:51:29;10.43;;;5.80;;
9848;SDS011;4963;51.444;6.528;2023-07-20T02:53:56;8.93;;;5.75;;
9848;SDS011;4963;51.444;6.528;2023-07-20T02:56:23;6.35;;;5.18;;
9848;SDS011;4963;51.444;6.528;2023-07-20T02:58:51;7.72;;;6.20;;
9848;SDS011;4963;51.444;6.528;2023-07-20T03:01:18;6.97;;;5.43;;
9848;SDS011;4963;51.444;6.528;2023-07-20T03:03:45;6.82;;;5.63;;
9848;SDS011;4963;51.444;6.528;2023-07-20T03:06:12;7.55;;;5.78;;
9848;SDS011;4963;51.444;6.528;2023-07-20T03:08:39;7.70;;;5.90;;
9848;SDS011;4963;51.444;6.528;2023-07-20T03:11:12;8.10;;;5.95;;
9848;SDS011;4963;51.444;6.528;2023-07-20T03:13:40;7.10;;;6.40;;
9848;SDS011;4963;51.444;6.528;2023-07-20T03:16:08;7.40;;;5.57;;
9848;SDS011;4963;51.444;6.528;2023-07-20T03:18:37;6.38;;;5.72;;
9848;SDS011;4963;51.444;6.528;2023-07-20T03:21:04;7.25;;;5.28;;
9848;SDS011;4963;51.444;6.528;2023-07-20T03:23:31;7.07;;;5.72;;
9848;SDS011;4963;51.444;6.528;2023-07-20T03:25:58;7.72;;;5.68;;
9848;SDS011;4963;51.444;6.528;2023-07-20T03:28:25;9.48;;;6.53;;
9848;SDS011;4963;51.444;6.528;2023-07-20T03:30:54;10.00;;;6.72;;
9848;SDS011;4963;51.444;6.528;2023-07-20T03:33:24;7.05;;;5.43;;
9848;SDS011;4963;51.444;6.528;2023-07-20T03:35:52;7.70;;;5.97;;
9848;SDS011;4963;51.444;6.528;2023-07-20T03:38:19;7.82;;;6.07;;
9848;SDS011;4963;51.444;6.528;2023-07-20T03:40:49;9.95;;;6.53;;
9848;SDS011;4963;51.444;6.528;2023-07-20T03:43:17;8.77;;;6.40;;
9848;SDS011;4963;51.444;6.528;2023-07-20T03:45:44;7.95;;;6.32;;
9848;SDS011;4963;51.444;6.528;2023-07-20T03:48:12;8.23;;;6.38;;
9848;SDS011;4963;51.444;6.528;2023-07-20T03:50:41;8.80;;;6.30;;
9848;SDS011;4963;51.444;6.528;2023-07-20T03:53:08;11.73;;;7.22;;
9848;SDS011;4963;51.444;6.528;2023-07-20T03:55:35;10.63;;;6.88;;
9848;SDS011;4963;51.444;6.528;2023-07-20T03:58:01;10.93;;;7.00;;
9848;SDS011;4963;51.444;6.528;2023-07-20T04:00:28;11.00;;;7.13;;
9848;SDS011;4963;51.444;6.528;2023-07-20T04:02:55;8.32;;;6.63;;
9848;SDS011;4963;51.444;6.528;2023-07-20T04:05:22;11.00;;;6.90;;
9848;SDS011;4963;51.444;6.528;2023-07-20T04:07:50;9.68;;;7.13;;
9848;SDS011;4963;51.444;6.528;2023-07-20T04:10:18;11.85;;;7.82;;
9848;SDS011;4963;51.444;6.528;2023-07-20T04:12:44;8.40;;;6.53;;
9848;SDS011;4963;51.444;6.528;2023-07-20T04:15:12;9.27;;;8.25;;
9848;SDS011;4963;51.444;6.528;2023-07-20T04:17:40;14.80;;;7.10;;
9848;SDS011;4963;51.444;6.528;2023-07-20T04:20:07;8.30;;;7.50;;
9848;SDS011;4963;51.444;6.528;2023-07-20T04:22:34;8.63;;;7.53;;
9848;SDS011;4963;51.444;6.528;2023-07-20T04:25:03;7.40;;;6.57;;
9848;SDS011;4963;51.444;6.528;2023-07-20T04:27:30;8.57;;;7.30;;
9848;SDS011;4963;51.444;6.528;2023-07-20T04:29:57;8.65;;;7.25;;
9848;SDS011;4963;51.444;6.528;2023-07-20T04:32:25;7.72;;;6.85;;
9848;SDS011;4963;51.444;6.528;2023-07-20T04:34:52;8.38;;;7.35;;
9848;SDS011;4963;51.444;6.528;2023-07-20T04:37:19;8.85;;;7.63;;
9848;SDS011;4963;51.444;6.528;2023-07-20T04:39:45;7.85;;;7.05;;
9848;SDS011;4963;51.444;6.528;2023-07-20T04:42:14;8.35;;;7.50;;
9848;SDS011;4963;51.444;6.528;2023-07-20T04:44:41;8.82;;;7.93;;
9848;SDS011;4963;51.444;6.528;2023-07-20T04:47:08;8.75;;;7.82;;
9848;SDS011;4963;51.444;6.528;2023-07-20T04:49:35;8.20;;;7.38;;
9848;SDS011;4963;51.444;6.528;2023-07-20T04:52:02;8.93;;;8.02;;
9848;SDS011;4963;51.444;6.528;2023-07-20T04:54:29;9.18;;;8.20;;
9848;SDS011;4963;51.444;6.528;2023-07-20T04:56:56;10.25;;;8.32;;
9848;SDS011;4963;51.444;6.528;2023-07-20T04:59:24;9.50;;;8.52;;
9848;SDS011;4963;51.444;6.528;2023-07-20T05:01:51;8.90;;;8.00;;
9848;SDS011;4963;51.444;6.528;2023-07-20T05:04:18;9.40;;;7.60;;
9848;SDS011;4963;51.444;6.528;2023-07-20T05:06:45;8.23;;;7.43;;
9848;SDS011;4963;51.444;6.528;2023-07-20T05:09:12;9.65;;;7.75;;
9848;SDS011;4963;51.444;6.528;2023-07-20T05:11:39;8.82;;;7.22;;
9848;SDS011;4963;51.444;6.528;2023-07-20T05:14:06;8.70;;;7.70;;
9848;SDS011;4963;51.444;6.528;2023-07-20T05:16:34;8.30;;;7.40;;
9848;SDS011;4963;51.444;6.528;2023-07-20T05:19:01;8.98;;;7.68;;
9848;SDS011;4963;51.444;6.528;2023-07-20T05:21:27;8.25;;;7.45;;
9848;SDS011;4963;51.444;6.528;2023-07-20T05:23:54;7.72;;;7.03;;
9848;SDS011;4963;51.444;6.528;2023-07-20T05:26:21;7.75;;;5.35;;
9848;SDS011;4963;51.444;6.528;2023-07-20T05:28:48;10.52;;;7.85;;
9848;SDS011;4963;51.444;6.528;2023-07-20T05:31:15;8.23;;;7.50;;
9848;SDS011;4963;51.444;6.528;2023-07-20T05:33:43;8.55;;;7.68;;
9848;SDS011;4963;51.444;6.528;2023-07-20T05:36:10;7.70;;;6.85;;
9848;SDS011;4963;51.444;6.528;2023-07-20T05:38:37;7.10;;;6.18;;
9848;SDS011;4963;51.444;6.528;2023-07-20T05:41:03;7.38;;;6.38;;
9848;SDS011;4963;51.444;6.528;2023-07-20T05:43:32;6.93;;;6.22;;
9848;SDS011;4963;51.444;6.528;2023-07-20T05:45:59;6.82;;;5.93;;
9848;SDS011;4963;51.444;6.528;2023-07-20T05:48:26;6.68;;;5.95;;
9848;SDS011;4963;51.444;6.528;2023-07-20T05:50:54;6.45;;;5.65;;
9848;SDS011;4963;51.444;6.528;2023-07-20T05:53:21;6.18;;;5.57;;
9848;SDS011;4963;51.444;6.528;2023-07-20T05:55:51;8.95;;;6.05;;
9848;SDS011;4963;51.444;6.528;2023-07-20T05:58:18;8.13;;;5.95;;
9848;SDS011;4963;51.444;6.528;2023-07-20T06:00:47;5.72;;;5.10;;
9848;SDS011;4963;51.444;6.528;2023-07-20T06:03:14;6.65;;;5.55;;
9848;SDS011;4963;51.444;6.528;2023-07-20T06:05:42;5.72;;;5.22;;
9848;SDS011;4963;51.444;6.528;2023-07-20T06:08:10;5.20;;;4.70;;
9848;SDS011;4963;51.444;6.528;2023-07-20T06:10:37;5.20;;;4.70;;
9848;SDS011;4963;51.444;6.528;2023-07-20T06:13:04;5.13;;;4.53;;
9848;SDS011;4963;51.444;6.528;2023-07-20T06:15:31;5.78;;;4.60;;
9848;SDS011;4963;51.444;6.528;2023-07-20T06:18:00;5.05;;;4.25;;
9848;SDS011;4963;51.444;6.528;2023-07-20T06:20:28;5.15;;;4.30;;
9848;SDS011;4963;51.444;6.528;2023-07-20T06:22:56;5.32;;;4.68;;
9848;SDS011;4963;51.444;6.528;2023-07-20T06:25:24;8.60;;;4.60;;
9848;SDS011;4963;51.444;6.528;2023-07-20T06:27:51;5.35;;;4.25;;
9848;SDS011;4963;51.444;6.528;2023-07-20T06:30:18;5.05;;;4.15;;
9848;SDS011;4963;51.444;6.528;2023-07-20T06:32:45;3.60;;;3.30;;
9848;SDS011;4963;51.444;6.528;2023-07-20T06:35:12;3.90;;;3.55;;
9848;SDS011;4963;51.444;6.528;2023-07-20T06:37:39;4.35;;;3.92;;
9848;SDS011;4963;51.444;6.528;2023-07-20T06:40:06;5.00;;;3.90;;
9848;SDS011;4963;51.444;6.528;2023-07-20T06:42:36;4.05;;;3.08;;
9848;SDS011;4963;51.444;6.528;2023-07-20T06:45:03;2.90;;;2.70;;
9848;SDS011;4963;51.444;6.528;2023-07-20T06:47:30;3.78;;;2.83;;
9848;SDS011;4963;51.444;6.528;2023-07-20T06:49:57;4.03;;;2.92;;
9848;SDS011;4963;51.444;6.528;2023-07-20T06:52:24;2.22;;;2.00;;
9848;SDS011;4963;51.444;6.528;2023-07-20T06:54:51;2.35;;;1.98;;
9848;SDS011;4963;51.444;6.528;2023-07-20T06:57:18;2.03;;;1.75;;
9848;SDS011;4963;51.444;6.528;2023-07-20T06:59:46;2.40;;;1.70;;
9848;SDS011;4963;51.444;6.528;2023-07-20T07:02:13;1.83;;;1.70;;
9848;SDS011;4963;51.444;6.528;2023-07-20T07:04:40;2.65;;;1.80;;
9848;SDS011;4963;51.444;6.528;2023-07-20T07:07:07;3.05;;;1.75;;
9848;SDS011;4963;51.444;6.528;2023-07-20T07:09:35;3.05;;;1.67;;
9848;SDS011;4963;51.444;6.528;2023-07-20T07:12:01;2.70;;;1.90;;
9848;SDS011;4963;51.444;6.528;2023-07-20T07:14:29;2.50;;;1.90;;
9848;SDS011;4963;51.444;6.528;2023-07-20T07:16:57;2.55;;;2.00;;
9848;SDS011;4963;51.444;6.528;2023-07-20T07:19:24;2.50;;;2.15;;
9848;SDS011;4963;51.444;6.528;2023-07-20T07:21:51;2.47;;;2.28;;
9848;SDS011;4963;51.444;6.528;2023-07-20T07:24:17;2.47;;;1.80;;
9848;SDS011;4963;51.444;6.528;2023-07-20T07:26:44;2.15;;;1.52;;
9848;SDS011;4963;51.444;6.528;2023-07-20T07:29:11;3.10;;;1.80;;
9848;SDS011;4963;51.444;6.528;2023-07-20T07:31:38;2.60;;;1.88;;
9848;SDS011;4963;51.444;6.528;2023-07-20T07:34:06;2.40;;;1.73;;
9848;SDS011;4963;51.444;6.528;2023-07-20T07:36:33;2.85;;;1.55;;
9848;SDS011;4963;51.444;6.528;2023-07-20T07:39:00;3.13;;;1.35;;
9848;SDS011;4963;51.444;6.528;2023-07-20T07:41:28;1.65;;;1.40;;
9848;SDS011;4963;51.444;6.528;2023-07-20T07:43:55;1.65;;;1.30;;
9848;SDS011;4963;51.444;6.528;2023-07-20T07:46:21;1.63;;;1.30;;
9848;SDS011;4963;51.444;6.528;2023-07-20T07:48:48;2.00;;;1.40;;
9848;SDS011;4963;51.444;6.528;2023-07-20T07:51:16;1.90;;;1.10;;
9848;SDS011;4963;51.444;6.528;2023-07-20T07:53:44;1.42;;;1.30;;
9848;SDS011;4963;51.444;6.528;2023-07-20T07:56:11;2.75;;;1.17;;
9848;SDS011;4963;51.444;6.528;2023-07-20T07:58:38;1.10;;;1.00;;
9848;SDS011;4963;51.444;6.528;2023-07-20T08:01:05;1.80;;;1.30;;
9848;SDS011;4963;51.444;6.528;2023-07-20T08:03:32;1.27;;;1.17;;
9848;SDS011;4963;51.444;6.528;2023-07-20T08:06:02;1.48;;;1.30;;
9848;SDS011;4963;51.444;6.528;2023-07-20T08:08:31;5.82;;;1.50;;
9848;SDS011;4963;51.444;6.528;2023-07-20T08:10:58;1.48;;;1.17;;
9848;SDS011;4963;51.444;6.528;2023-07-20T08:13:25;1.50;;;1.33;;
9848;SDS011;4963;51.444;6.528;2023-07-20T08:15:52;1.63;;;1.40;;
9848;SDS011;4963;51.444;6.528;2023-07-20T08:18:19;1.83;;;1.15;;
9848;SDS011;4963;51.444;6.528;2023-07-20T08:20:46;1.63;;;1.02;;
9848;SDS011;4963;51.444;6.528;2023-07-20T08:23:14;2.33;;;1.23;;
9848;SDS011;4963;51.444;6.528;2023-07-20T08:25:42;1.20;;;1.10;;
9848;SDS011;4963;51.444;6.528;2023-07-20T08:28:10;2.45;;;0.95;;
9848;SDS011;4963;51.444;6.528;2023-07-20T08:30:40;1.00;;;0.90;;
9848;SDS011;4963;51.444;6.528;2023-07-20T08:33:08;2.08;;;0.90;;
9848;SDS011;4963;51.444;6.528;2023-07-20T08:35:35;1.88;;;1.00;;
9848;SDS011;4963;51.444;6.528;2023-07-20T08:38:02;1.67;;;1.20;;
9848;SDS011;4963;51.444;6.528;2023-07-20T08:40:30;1.83;;;1.30;;
9848;SDS011;4963;51.444;6.528;2023-07-20T08:42:59;2.08;;;1.10;;
9848;SDS011;4963;51.444;6.528;2023-07-20T08:45:26;1.42;;;1.00;;
9848;SDS011;4963;51.444;6.528;2023-07-20T08:47:55;2.10;;;1.05;;
9848;SDS011;4963;51.444;6.528;2023-07-20T08:50:23;1.10;;;1.00;;
9848;SDS011;4963;51.444;6.528;2023-07-20T08:52:52;1.10;;;1.00;;
9848;SDS011;4963;51.444;6.528;2023-07-20T08:55:20;1.45;;;1.30;;
9848;SDS011;4963;51.444;6.528;2023-07-20T08:57:48;1.63;;;1.00;;
9848;SDS011;4963;51.444;6.528;2023-07-20T09:00:18;2.10;;;1.27;;
9848;SDS011;4963;51.444;6.528;2023-07-20T09:02:49;2.35;;;1.20;;
9848;SDS011;4963;51.444;6.528;2023-07-20T09:05:17;2.20;;;1.20;;
9848;SDS011;4963;51.444;6.528;2023-07-20T09:07:44;2.47;;;1.42;;
9848;SDS011;4963;51.444;6.528;2023-07-20T09:10:12;2.33;;;1.70;;
9848;SDS011;4963;51.444;6.528;2023-07-20T09:12:39;2.03;;;1.33;;
9848;SDS011;4963;51.444;6.528;2023-07-20T09:15:07;1.63;;;1.20;;
9848;SDS011;4963;51.444;6.528;2023-07-20T09:17:37;2.05;;;0.90;;
9848;SDS011;4963;51.444;6.528;2023-07-20T09:20:04;1.40;;;1.10;;
9848;SDS011;4963;51.444;6.528;2023-07-20T09:22:36;1.63;;;1.05;;
9848;SDS011;4963;51.444;6.528;2023-07-20T09:25:05;2.72;;;1.20;;
9848;SDS011;4963;51.444;6.528;2023-07-20T09:27:34;1.33;;;1.10;;
9848;SDS011;4963;51.444;6.528;2023-07-20T09:30:02;1.30;;;1.20;;
9848;SDS011;4963;51.444;6.528;2023-07-20T09:32:32;1.50;;;0.90;;
9848;SDS011;4963;51.444;6.528;2023-07-20T09:35:12;2.00;;;0.90;;
9848;SDS011;4963;51.444;6.528;2023-07-20T09:37:40;2.05;;;1.05;;
9848;SDS011;4963;51.444;6.528;2023-07-20T09:40:14;1.15;;;1.00;;
9848;SDS011;4963;51.444;6.528;2023-07-20T09:42:42;0.90;;;0.90;;
9848;SDS011;4963;51.444;6.528;2023-07-20T09:45:09;1.45;;;1.05;;
9848;SDS011;4963;51.444;6.528;2023-07-20T09:47:36;1.20;;;1.02;;
9848;SDS011;4963;51.444;6.528;2023-07-20T09:50:06;1.42;;;1.00;;
9848;SDS011;4963;51.444;6.528;2023-07-20T09:52:36;1.17;;;1.00;;
9848;SDS011;4963;51.444;6.528;2023-07-20T09:55:05;3.33;;;1.23;;
9848;SDS011;4963;51.444;6.528;2023-07-20T09:57:33;1.23;;;1.00;;
9848;SDS011;4963;51.444;6.528;2023-07-20T10:00:01;2.13;;;1.00;;
9848;SDS011;4963;51.444;6.528;2023-07-20T10:02:32;1.42;;;1.10;;
9848;SDS011;4963;51.444;6.528;2023-07-20T10:05:03;3.85;;;1.08;;
9848;SDS011;4963;51.444;6.528;2023-07-20T10:07:32;1.38;;;1.10;;
9848;SDS011;4963;51.444;6.528;2023-07-20T10:10:02;1.50;;;1.10;;
9848;SDS011;4963;51.444;6.528;2023-07-20T10:12:30;2.55;;;1.00;;
9848;SDS011;4963;51.444;6.528;2023-07-20T10:14:59;2.20;;;1.40;;
9848;SDS011;4963;51.444;6.528;2023-07-20T10:17:35;2.10;;;1.00;;
9848;SDS011;4963;51.444;6.528;2023-07-20T10:20:03;1.52;;;1.17;;
9848;SDS011;4963;51.444;6.528;2023-07-20T10:22:34;1.00;;;0.90;;
9848;SDS011;4963;51.444;6.528;2023-07-20T10:25:02;1.52;;;1.10;;
9848;SDS011;4963;51.444;6.528;2023-07-20T10:27:31;1.70;;;1.02;;
9848;SDS011;4963;51.444;6.528;2023-07-20T10:29:58;1.05;;;0.90;;
9848;SDS011;4963;51.444;6.528;2023-07-20T10:32:26;1.40;;;0.95;;
9848;SDS011;4963;51.444;6.528;2023-07-20T10:34:55;1.73;;;1.20;;
9848;SDS011;4963;51.444;6.528;2023-07-20T10:40:26;1.33;;;1.10;;
9848;SDS011;4963;51.444;6.528;2023-07-20T10:42:59;1.60;;;1.00;;
9848;SDS011;4963;51.444;6.528;2023-07-20T10:45:37;1.10;;;1.00;;
9848;SDS011;4963;51.444;6.528;2023-07-20T10:48:12;2.15;;;1.20;;
9848;SDS011;4963;51.444;6.528;2023-07-20T10:50:41;0.98;;;0.90;;
9848;SDS011;4963;51.444;6.528;2023-07-20T10:53:17;3.05;;;1.00;;
9848;SDS011;4963;51.444;6.528;2023-07-20T10:55:44;1.05;;;1.00;;
9848;SDS011;4963;51.444;6.528;2023-07-20T10:58:15;3.67;;;1.10;;
9848;SDS011;4963;51.444;6.528;2023-07-20T11:00:55;1.55;;;1.23;;
9848;SDS011;4963;51.444;6.528;2023-07-20T11:03:28;3.13;;;1.15;;
9848;SDS011;4963;51.444;6.528;2023-07-20T11:05:56;0.93;;;0.90;;
9848;SDS011;4963;51.444;6.528;2023-07-20T11:11:22;1.65;;;1.10;;
9848;SDS011;4963;51.444;6.528;2023-07-20T11:13:56;1.20;;;1.10;;
9848;SDS011;4963;51.444;6.528;2023-07-20T11:16:37;0.80;;;0.80;;
9848;SDS011;4963;51.444;6.528;2023-07-20T11:19:05;1.05;;;0.93;;
9848;SDS011;4963;51.444;6.528;2023-07-20T11:21:40;0.95;;;0.88;;
9848;SDS011;4963;51.444;6.528;2023-07-20T11:24:09;1.02;;;0.85;;
9848;SDS011;4963;51.444;6.528;2023-07-20T11:26:41;0.90;;;0.80;;
9848;SDS011;4963;51.444;6.528;2023-07-20T11:29:09;1.20;;;1.10;;
9848;SDS011;4963;51.444;6.528;2023-07-20T11:31:37;1.05;;;0.93;;
9848;SDS011;4963;51.444;6.528;2023-07-20T11:34:05;1.58;;;1.10;;
9848;SDS011;4963;51.444;6.528;2023-07-20T11:36:33;3.53;;;1.10;;
9848;SDS011;4963;51.444;6.528;2023-07-20T11:39:00;1.45;;;1.20;;
9848;SDS011;4963;51.444;6.528;2023-07-20T11:41:31;1.27;;;0.95;;
9848;SDS011;4963;51.444;6.528;2023-07-20T11:43:58;1.67;;;1.10;;
9848;SDS011;4963;51.444;6.528;2023-07-20T11:46:25;1.00;;;0.80;;
9848;SDS011;4963;51.444;6.528;2023-07-20T11:48:59;1.35;;;0.98;;
9848;SDS011;4963;51.444;6.528;2023-07-20T11:51:29;1.77;;;1.10;;
9848;SDS011;4963;51.444;6.528;2023-07-20T11:53:57;1.30;;;1.00;;
9848;SDS011;4963;51.444;6.528;2023-07-20T11:56:24;2.25;;;0.95;;
9848;SDS011;4963;51.444;6.528;2023-07-20T11:58:55;0.73;;;0.73;;
9848;SDS011;4963;51.444;6.528;2023-07-20T12:01:24;1.67;;;1.00;;
9848;SDS011;4963;51.444;6.528;2023-07-20T12:03:54;1.02;;;0.80;;
9848;SDS011;4963;51.444;6.528;2023-07-20T12:06:22;1.25;;;1.02;;
9848;SDS011;4963;51.444;6.528;2023-07-20T12:08:50;1.30;;;1.10;;
9848;SDS011;4963;51.444;6.528;2023-07-20T12:11:30;1.42;;;1.20;;
9848;SDS011;4963;51.444;6.528;2023-07-20T12:13:59;0.90;;;0.90;;
9848;SDS011;4963;51.444;6.528;2023-07-20T12:16:26;1.33;;;1.08;;
9848;SDS011;4963;51.444;6.528;2023-07-20T12:18:58;1.55;;;0.90;;
9848;SDS011;4963;51.444;6.528;2023-07-20T12:21:26;2.50;;;1.02;;
9848;SDS011;4963;51.444;6.528;2023-07-20T12:23:53;2.67;;;1.20;;
9848;SDS011;4963;51.444;6.528;2023-07-20T12:26:22;1.67;;;1.00;;
9848;SDS011;4963;51.444;6.528;2023-07-20T12:28:50;1.52;;;1.10;;
9848;SDS011;4963;51.444;6.528;2023-07-20T12:31:18;1.65;;;1.08;;
9848;SDS011;4963;51.444;6.528;2023-07-20T12:33:46;1.00;;;0.90;;
9848;SDS011;4963;51.444;6.528;2023-07-20T12:36:13;1.17;;;0.90;;
9848;SDS011;4963;51.444;6.528;2023-07-20T12:38:40;1.85;;;1.10;;
9848;SDS011;4963;51.444;6.528;2023-07-20T12:41:09;2.00;;;1.10;;
9848;SDS011;4963;51.444;6.528;2023-07-20T12:43:38;1.20;;;1.10;;
9848;SDS011;4963;51.444;6.528;2023-07-20T12:46:05;1.10;;;1.00;;
9848;SDS011;4963;51.444;6.528;2023-07-20T12:48:33;2.85;;;1.50;;
9848;SDS011;4963;51.444;6.528;2023-07-20T12:51:02;1.10;;;1.00;;
9848;SDS011;4963;51.444;6.528;2023-07-20T12:53:29;2.40;;;1.15;;
9848;SDS011;4963;51.444;6.528;2023-07-20T12:55:56;1.20;;;0.93;;
9848;SDS011;4963;51.444;6.528;2023-07-20T12:58:23;2.40;;;0.80;;
9848;SDS011;4963;51.444;6.528;2023-07-20T13:00:50;1.55;;;1.15;;
9848;SDS011;4963;51.444;6.528;2023-07-20T13:03:17;1.73;;;1.05;;
9848;SDS011;4963;51.444;6.528;2023-07-20T13:05:46;1.52;;;1.00;;
9848;SDS011;4963;51.444;6.528;2023-07-20T13:08:13;1.10;;;0.93;;
9848;SDS011;4963;51.444;6.528;2023-07-20T13:10:40;2.17;;;1.00;;
9848;SDS011;4963;51.444;6.528;2023-07-20T13:13:07;0.95;;;0.90;;
9848;SDS011;4963;51.444;6.528;2023-07-20T13:15:40;2.17;;;0.90;;
9848;SDS011;4963;51.444;6.528;2023-07-20T13:18:08;1.50;;;1.00;;
9848;SDS011;4963;51.444;6.528;2023-07-20T13:20:35;1.83;;;1.02;;
9848;SDS011;4963;51.444;6.528;2023-07-20T13:23:04;2.00;;;1.05;;
9848;SDS011;4963;51.444;6.528;2023-07-20T13:25:31;2.30;;;1.15;;
9848;SDS011;4963;51.444;6.528;2023-07-20T13:27:58;1.08;;;0.98;;
9848;SDS011;4963;51.444;6.528;2023-07-20T13:30:24;2.90;;;1.20;;
9848;SDS011;4963;51.444;6.528;2023-07-20T13:32:51;2.90;;;1.10;;
9848;SDS011;4963;51.444;6.528;2023-07-20T13:35:18;1.00;;;0.90;;
9848;SDS011;4963;51.444;6.528;2023-07-20T13:37:45;1.40;;;1.00;;
9848;SDS011;4963;51.444;6.528;2023-07-20T13:40:14;1.50;;;1.00;;
9848;SDS011;4963;51.444;6.528;2023-07-20T13:42:43;1.13;;;1.02;;
9848;SDS011;4963;51.444;6.528;2023-07-20T13:45:10;1.30;;;1.00;;
9848;SDS011;4963;51.444;6.528;2023-07-20T13:47:37;1.10;;;1.00;;
9848;SDS011;4963;51.444;6.528;2023-07-20T13:50:04;0.95;;;0.95;;
9848;SDS011;4963;51.444;6.528;2023-07-20T13:52:31;2.70;;;1.25;;
9848;SDS011;4963;51.444;6.528;2023-07-20T13:54:59;1.25;;;1.15;;
9848;SDS011;4963;51.444;6.528;2023-07-20T13:57:27;2.75;;;1.25;;
9848;SDS011;4963;51.444;6.528;2023-07-20T13:59:54;1.38;;;1.00;;
9848;SDS011;4963;51.444;6.528;2023-07-20T14:02:20;1.17;;;1.00;;
9848;SDS011;4963;51.444;6.528;2023-07-20T14:04:47;1.48;;;1.33;;
9848;SDS011;4963;51.444;6.528;2023-07-20T14:07:15;1.52;;;1.02;;
9848;SDS011;4963;51.444;6.528;2023-07-20T14:09:41;1.40;;;1.30;;
9848;SDS011;4963;51.444;6.528;2023-07-20T14:12:08;1.10;;;1.00;;
9848;SDS011;4963;51.444;6.528;2023-07-20T14:14:38;2.25;;;1.45;;
9848;SDS011;4963;51.444;6.528;2023-07-20T14:17:06;1.83;;;1.08;;
9848;SDS011;4963;51.444;6.528;2023-07-20T14:19:33;1.77;;;1.25;;
9848;SDS011;4963;51.444;6.528;2023-07-20T14:21:59;4.20;;;1.50;;
9848;SDS011;4963;51.444;6.528;2023-07-20T14:24:26;2.33;;;1.23;;
9848;SDS011;4963;51.444;6.528;2023-07-20T14:26:53;4.25;;;1.15;;
9848;SDS011;4963;51.444;6.528;2023-07-20T14:29:20;2.53;;;1.40;;
9848;SDS011;4963;51.444;6.528;2023-07-20T14:31:48;2.80;;;1.35;;
9848;SDS011;4963;51.444;6.528;2023-07-20T14:34:17;1.23;;;1.02;;
9848;SDS011;4963;51.444;6.528;2023-07-20T14:36:44;2.10;;;1.35;;
9848;SDS011;4963;51.444;6.528;2023-07-20T14:39:11;1.40;;;1.20;;
9848;SDS011;4963;51.444;6.528;2023-07-20T14:41:38;3.25;;;1.40;;
9848;SDS011;4963;51.444;6.528;2023-07-20T14:44:05;1.90;;;1.15;;
9848;SDS011;4963;51.444;6.528;2023-07-20T14:46:31;6.05;;;1.30;;
9848;SDS011;4963;51.444;6.528;2023-07-20T14:48:59;2.20;;;1.40;;
9848;SDS011;4963;51.444;6.528;2023-07-20T14:51:27;1.60;;;1.20;;
9848;SDS011;4963;51.444;6.528;2023-07-20T14:53:58;1.20;;;1.08;;
9848;SDS011;4963;51.444;6.528;2023-07-20T14:56:25;1.73;;;1.23;;
9848;SDS011;4963;51.444;6.528;2023-07-20T14:58:52;1.40;;;1.20;;
9848;SDS011;4963;51.444;6.528;2023-07-20T15:01:19;2.35;;;1.35;;
9848;SDS011;4963;51.444;6.528;2023-07-20T15:03:46;1.13;;;1.02;;
9848;SDS011;4963;51.444;6.528;2023-07-20T15:06:16;2.90;;;1.30;;
9848;SDS011;4963;51.444;6.528;2023-07-20T15:08:43;3.03;;;1.10;;
9848;SDS011;4963;51.444;6.528;2023-07-20T15:11:10;1.13;;;1.02;;
9848;SDS011;4963;51.444;6.528;2023-07-20T15:13:37;2.40;;;1.40;;
9848;SDS011;4963;51.444;6.528;2023-07-20T15:16:03;1.60;;;1.20;;
9848;SDS011;4963;51.444;6.528;2023-07-20T15:18:30;2.28;;;1.48;;
9848;SDS011;4963;51.444;6.528;2023-07-20T15:20:57;1.50;;;1.10;;
9848;SDS011;4963;51.444;6.528;2023-07-20T15:23:25;2.13;;;1.30;;
9848;SDS011;4963;51.444;6.528;2023-07-20T15:25:52;3.65;;;1.40;;
9848;SDS011;4963;51.444;6.528;2023-07-20T15:28:19;1.73;;;1.27;;